Latest Coastal Weather Observations for Rowley Shoals

IDW60701

Issued at 9:43 pm WST Monday 4 May 2026 (issued every 10 minutes, with the page automatically refreshed every 10 minutes)

About coastal observations | Map of coastal stations | Coastal observations for WA | Marine services | Other Formats
Station Details ID: 200713 Name: ROWLEY SHOALS Lat: -17.52 Lon: 118.95 Height: 0.0 m
Data from the previous 72 hours. | See also: Recent months at Rowley Shoals
Date/Time
WST
Wind Sea
Height
m
Swell Vis
km
Cloud Weather Temp
°C
Press
MSL
hPa
Rain since
9am
mm
Dir  Spd
kts
Gust
kts
Height
m
Period
s
Dir
04/09:30pm SE 21 24 - - - - - - - 29.2 1013.7 -
04/09:00pm SE 19 23 - - - - - - - 28.7 1013.9 -
04/08:30pm SE 19 23 - - - - - - - 28.7 1013.9 -
04/08:00pm SE 19 23 - - - - - - - 28.2 1013.8 -
04/07:30pm SE 19 23 - - - - - - - 28.1 1013.6 -
04/07:00pm SE 19 23 - - - - - - - 28.1 1013.3 -
04/06:30pm SE 19 23 - - - - - - - 28.0 1013.2 -
04/06:00pm SE 19 24 - - - - - - - 27.8 1013.1 -
04/05:30pm ESE 19 23 - - - - - - - 27.9 1012.8 -
04/05:00pm SE 20 23 - - - - - - - 27.9 1012.5 -
04/04:30pm ESE 20 23 - - - - - - - 28.1 1012.3 -
04/04:00pm ESE 20 25 - - - - - - - 28.0 1012.3 -
04/03:30pm ESE 21 25 - - - - - - - 28.1 1012.3 -
04/03:00pm ESE 20 23 - - - - - - - 28.1 1012.3 -
04/02:30pm ESE 20 25 - - - - - - - 27.8 1012.3 -
04/02:00pm ESE 21 25 - - - - - - - 27.9 1012.5 -
04/01:30pm ESE 22 26 - - - - - - - 28.1 1012.6 -
04/01:00pm ESE 21 26 - - - - - - - 28.2 1013.1 -
04/12:30pm ESE 23 27 - - - - - - - 28.1 1013.3 -
04/12:00pm ESE 22 26 - - - - - - - 28.0 1013.8 -
04/11:30am ESE 22 26 - - - - - - - 28.2 1014.1 -
04/11:00am ESE 22 26 - - - - - - - 28.2 1014.6 -
04/10:30am ESE 22 25 - - - - - - - 28.3 1014.9 -
04/10:00am ESE 22 27 - - - - - - - 28.2 1015.0 -
04/09:30am ESE 21 26 - - - - - - - 28.4 1014.8 -
04/09:00am SE 22 25 - - - - - - - 28.5 1014.6 -
04/08:30am ESE 22 25 - - - - - - - 28.4 1014.3 -
04/08:00am ESE 22 25 - - - - - - - 28.5 1014.2 -
04/07:30am SE 22 26 - - - - - - - 28.5 1014.0 -
04/07:00am SE 21 25 - - - - - - - 28.3 1014.0 -
04/06:30am SE 21 23 - - - - - - - 28.6 1013.6 -
04/06:00am SE 19 23 - - - - - - - 28.6 1013.3 -
04/05:30am ESE 18 22 - - - - - - - 28.9 1013.0 -
04/05:00am ESE 19 22 - - - - - - - 29.2 1012.8 -
04/04:30am SE 19 22 - - - - - - - 29.4 1012.7 -
04/04:00am SE 17 19 - - - - - - - 29.4 1012.6 -
04/03:30am SE 17 19 - - - - - - - 29.4 1012.8 -
04/03:00am SE 16 18 - - - - - - - 29.6 1012.8 -
04/02:30am SE 14 17 - - - - - - - 29.7 1012.8 -
04/02:00am SE 14 16 - - - - - - - 29.6 1012.9 -
04/01:30am SE 12 14 - - - - - - - 29.3 1012.8 -
04/01:00am SE 12 14 - - - - - - - 29.2 1013.1 -
04/12:30am SE 12 14 - - - - - - - 29.1 1013.2 -
04/12:00am SE 11 13 - - - - - - - 29.1 1013.3 -
 
Date/Time
WST
Wind Sea
Height
m
Swell Vis
km
Cloud Weather Temp
°C
Press
MSL
hPa
Rain since
9am
mm
Dir  Spd
kts
Gust
kts
Height
m
Period
s
Dir
03/11:30pm SE 11 12 - - - - - - - 28.9 1013.5 -
03/11:00pm SE 11 13 - - - - - - - 28.7 1013.5 -
03/10:30pm SE 11 14 - - - - - - - 28.6 1013.5 -
03/10:00pm SE 11 13 - - - - - - - 28.6 1013.7 -
03/09:30pm SE 11 13 - - - - - - - 28.6 1013.7 -
03/09:00pm ESE 12 14 - - - - - - - 28.4 1013.7 -
03/08:30pm ESE 11 14 - - - - - - - 28.2 1013.7 -
03/08:00pm ESE 11 14 - - - - - - - 28.1 1013.6 -
03/07:30pm ESE 12 15 - - - - - - - 28.0 1013.1 -
03/07:00pm ESE 12 15 - - - - - - - 28.0 1012.9 -
03/06:30pm ESE 13 16 - - - - - - - 28.0 1012.4 -
03/06:00pm ESE 14 16 - - - - - - - 28.1 1012.0 -
03/05:30pm ESE 14 16 - - - - - - - 28.0 1011.7 -
03/05:00pm ESE 14 17 - - - - - - - 28.1 1011.5 -
03/04:30pm ESE 15 19 - - - - - - - 28.0 1011.2 -
03/04:00pm ESE 15 18 - - - - - - - 28.0 1011.1 -
03/03:30pm ESE 16 20 - - - - - - - 28.1 1011.1 -
03/03:00pm ESE 16 19 - - - - - - - 28.0 1011.2 -
03/02:30pm ESE 16 19 - - - - - - - 28.0 1011.5 -
03/02:00pm ESE 16 19 - - - - - - - 28.0 1011.6 -
03/01:30pm ESE 16 19 - - - - - - - 28.2 1011.9 -
03/01:00pm ESE 16 19 - - - - - - - 28.2 1012.2 -
03/12:30pm ESE 17 20 - - - - - - - 28.1 1012.5 -
03/12:00pm ESE 17 20 - - - - - - - 28.2 1012.9 -
03/11:30am ESE 17 21 - - - - - - - 28.2 1013.2 -
03/11:00am ESE 17 19 - - - - - - - 28.2 1013.6 -
03/10:30am ESE 17 20 - - - - - - - 28.4 1013.8 -
03/10:00am ESE 18 21 - - - - - - - 28.5 1013.8 -
03/09:30am ESE 18 21 - - - - - - - 28.5 1013.7 -
03/09:00am ESE 18 21 - - - - - - - 28.5 1013.5 -
03/08:30am ESE 18 20 - - - - - - - 28.7 1013.3 -
03/08:00am ESE 17 19 - - - - - - - 28.7 1013.1 -
03/07:30am SE 17 19 - - - - - - - 28.9 1012.7 -
03/07:00am SE 13 17 - - - - - - - 29.2 1012.5 -
03/06:30am SSE 8 9 - - - - - - - 29.0 1012.3 -
03/06:00am SSE 7 8 - - - - - - - 28.7 1012.2 -
03/05:30am SSE 2 3 - - - - - - - 28.4 1011.9 -
03/05:00am CALM 0 0 - - - - - - - 28.3 1011.6 -
03/04:30am CALM 0 0 - - - - - - - 28.3 1011.3 -
03/04:00am CALM 0 0 - - - - - - - 28.4 1011.4 -
03/03:30am CALM 0 0 - - - - - - - 28.5 1011.4 -
03/03:00am ESE 3 4 - - - - - - - 28.5 1011.5 -
03/02:30am SE 4 5 - - - - - - - 28.6 1011.6 -
03/02:00am ESE 5 6 - - - - - - - 28.6 1011.5 -
03/01:30am SE 5 7 - - - - - - - 28.5 1011.6 -
03/01:00am SE 7 7 - - - - - - - 28.6 1011.8 -
03/12:30am ESE 7 9 - - - - - - - 28.9 1011.9 -
03/12:00am ESE 5 7 - - - - - - - 28.9 1012.1 -
 
Date/Time
WST
Wind Sea
Height
m
Swell Vis
km
Cloud Weather Temp
°C
Press
MSL
hPa
Rain since
9am
mm
Dir  Spd
kts
Gust
kts
Height
m
Period
s
Dir
02/11:30pm ESE 7 9 - - - - - - - 29.0 1012.3 -
02/11:00pm ESE 8 9 - - - - - - - 29.0 1012.4 -
02/10:30pm ESE 9 11 - - - - - - - 29.0 1012.5 -
02/10:00pm ESE 8 9 - - - - - - - 29.0 1012.6 -
02/09:30pm ESE 9 11 - - - - - - - 28.9 1012.8 -
02/09:00pm ESE 8 10 - - - - - - - 28.9 1012.7 -
02/08:30pm ESE 8 10 - - - - - - - 28.9 1012.5 -
02/08:00pm ESE 7 8 - - - - - - - 29.0 1012.3 -
02/07:30pm SE 7 8 - - - - - - - 29.0 1011.8 -
02/07:00pm SE 7 9 - - - - - - - 29.0 1011.3 -
02/06:30pm ESE 7 9 - - - - - - - 29.0 1011.0 -
02/06:00pm ESE 6 7 - - - - - - - 29.1 1010.7 -
02/05:30pm SE 5 7 - - - - - - - 29.1 1010.4 -
02/05:00pm ESE 5 7 - - - - - - - 29.2 1010.1 -
02/04:30pm ESE 6 8 - - - - - - - 29.2 1010.0 -
02/04:00pm SSE 4 6 - - - - - - - 29.5 1009.8 -
02/03:30pm SSE 6 7 - - - - - - - 29.5 1009.8 -
02/03:00pm SE 5 7 - - - - - - - 29.6 1009.9 -
02/02:30pm SE 5 6 - - - - - - - 29.5 1010.1 -
02/02:00pm ESE 6 8 - - - - - - - 29.3 1010.2 -
02/01:30pm SE 6 7 - - - - - - - 29.2 1010.4 -
02/01:00pm SE 5 6 - - - - - - - 29.1 1010.7 -
02/12:30pm ESE 5 7 - - - - - - - 28.9 1011.0 -
02/12:00pm ESE 4 6 - - - - - - - 28.9 1011.4 -
02/11:30am SSE 5 6 - - - - - - - 28.9 1011.7 -
02/11:00am S 4 7 - - - - - - - 29.1 1011.9 -
02/10:30am S 6 7 - - - - - - - 28.6 1012.2 -
02/10:00am S 6 7 - - - - - - - 28.6 1012.3 -
02/09:30am SSW 6 7 - - - - - - - 28.4 1012.3 -
02/09:00am SSW 5 6 - - - - - - - 28.3 1012.1 -
02/08:30am SSW 5 5 - - - - - - - 28.3 1012.1 -
02/08:00am SW 5 6 - - - - - - - 28.2 1011.9 -
02/07:30am NNW 1 5 - - - - - - - 28.2 1011.6 -
02/07:00am CALM 0 0 - - - - - - - 27.9 1011.3 -
02/06:30am CALM 0 0 - - - - - - - 27.7 1011.0 -
02/06:00am CALM 0 0 - - - - - - - 27.6 1010.8 -
02/05:30am CALM 0 0 - - - - - - - 27.5 1010.6 -
02/05:00am CALM 0 0 - - - - - - - 27.7 1010.5 -
02/04:30am NNE 2 3 - - - - - - - 27.9 1010.4 -
02/04:00am NNE 3 4 - - - - - - - 28.0 1010.5 -
02/03:30am NNE 3 5 - - - - - - - 28.1 1010.6 -
02/03:00am NE 2 4 - - - - - - - 28.1 1010.8 -
02/02:30am NE 2 4 - - - - - - - 28.2 1010.9 -
02/02:00am NE 2 4 - - - - - - - 28.3 1011.1 -
02/01:30am SE 3 4 - - - - - - - 28.3 1011.3 -
02/01:00am SE 3 4 - - - - - - - 28.4 1011.5 -
02/12:30am SE 3 5 - - - - - - - 28.4 1011.7 -
02/12:00am SE 5 6 - - - - - - - 28.4 1012.2 -
 
Date/Time
WST
Wind Sea
Height
m
Swell Vis
km
Cloud Weather Temp
°C
Press
MSL
hPa
Rain since
9am
mm
Dir  Spd
kts
Gust
kts
Height
m
Period
s
Dir
01/11:30pm SSE 5 7 - - - - - - - 28.6 1012.3 -
01/11:00pm SE 6 8 - - - - - - - 28.6 1012.4 -
01/10:30pm SSE 7 9 - - - - - - - 28.6 1012.4 -
01/10:00pm SSE 8 9 - - - - - - - 28.6 1012.5 -

Other formats

Comma delimited format used in spreadsheet applications
http://www.bom.gov.au/fwo/IDW60701/IDW60701.94207.axf

JavaScript Object Notation format (JSON) in row-major order
http://www.bom.gov.au/fwo/IDW60701/IDW60701.94207.json

Data quality

Most of these data are generated automatically and are frequently updated. Quality checks on data are not normally performed. It is possible for incorrect values to appear. Refer to information at About Latest Weather Observations and please check the disclaimer before using these data.